Egmondgracht — PDWG — position and weather

sailwx.info

Track history (hours):
 
Tides and Currents Weather Stations Pressure Air Temp Water Temp Dewpoint Dewpoint Depression Visibility Wind Speed Wind Dir Waves Ship Positions

Egmondgracht

Last reported at 2017-Feb-17 13:14 UTC. Time now 2017-Feb-23 00:20 UTC.
Position N 38°47' W 011°28'.

Length 136 m; beam 19 m; draft 9 m.

Type: Cargo ship. MMSI: 245716000.

Date/timePositionNaut miles runAvg speedWind from/ knotsBaromVisibWave heightAir tempDewpointWater temp
2017-Feb-17 13:14N 38°47' W 011°28'1014.7
2017-Feb-17 12:34N 38°55' W 011°20'1514.6
2017-Feb-17 11:34N 39°06' W 011°08'1514.8
2017-Feb-17 10:33N 39°17' W 010°55'6114.6
2017-Feb-17 06:21N 40°02' W 010°02'  
2017-Feb-12 14:23N 49°39' W 003°49'1316.1
2017-Feb-12 13:33N 49°46' W 003°31'1515.1
2017-Feb-12 12:33N 49°54' W 003°11'1615.5
2017-Feb-12 11:31N 50°00' W 002°48'4812.0
2017-Feb-12 07:33N 50°13' W 001°37'1212.5
2017-Feb-12 06:33N 50°16' W 001°18'1514.9
2017-Feb-12 05:33N 50°20' W 000°55'1816.5
2017-Feb-12 04:29N 50°25' W 000°29'1516.4
2017-Feb-12 03:33N 50°29' W 000°06'1616.2
2017-Feb-12 02:33N 50°33' E 000°19'1515.2
2017-Feb-12 01:33N 50°40' E 000°40'1414.2
2017-Feb-12 00:34N 50°49' E 000°58'1313.4
2017-Feb-11 23:33N 50°57' E 001°14'1414.0
2017-Feb-11 22:34N 51°06' E 001°32'1616.3
2017-Feb-11 21:34N 51°18' E 001°49'1716.9
2017-Feb-11 20:33N 51°32' E 002°05'21011.7
2017-Feb-11 02:33N 53°25' E 006°56'10 2.5
2017-Feb-10 22:26N 53°20' E 007°12'0 0.0
2017-Feb-10 21:11N 53°20' E 007°12'0 0.0
2017-Feb-10 20:23N 53°20' E 007°12'0 0.0
2017-Feb-10 19:11N 53°20' E 007°12'0 0.0
2017-Feb-10 17:23N 53°20' E 007°12'0 0.0
2017-Feb-10 16:29N 53°20' E 007°12'0 0.0
2017-Feb-10 15:29N 53°20' E 007°12'0 0.0
2017-Feb-10 14:23N 53°20' E 007°12'0 0.0
2017-Feb-10 13:29N 53°20' E 007°12'0 0.0
2017-Feb-10 12:23N 53°20' E 007°12'0 0.0
2017-Feb-10 11:17N 53°20' E 007°12'0 0.0
2017-Feb-10 10:11N 53°20' E 007°12'0 0.0
2017-Feb-10 07:29N 53°20' E 007°12'0 0.0
2017-Feb-10 06:29N 53°20' E 007°12'0 0.0
2017-Feb-10 05:05N 53°20' E 007°12'0 0.0
2017-Feb-10 04:33N 53°20' E 007°12'1 0.6
2017-Feb-10 03:29N 53°20' E 007°11'6 6.1
2017-Feb-10 02:33N 53°19' E 007°02'1110.8
2017-Feb-10 01:31N 53°28' E 006°50'1411.0
2017-Feb-10 00:17N 53°37' E 006°32'46 6.9
2017-Feb-09 17:33N 53°31' E 005°15'13 6.3
2017-Feb-09 15:29N 53°27' E 004°54'18 6.0
2017-Feb-09 12:30N 53°13' E 004°34'6 6.6
2017-Feb-09 11:33N 53°08' E 004°28'1110.6
2017-Feb-09 10:33N 52°59' E 004°20'1111.1
2017-Feb-09 09:33N 52°49' E 004°12'3 3.1
2017-Feb-09 08:33N 52°46' E 004°10'1111.2
2017-Feb-09 07:33N 52°36' E 003°60'9 8.5
2017-Feb-09 06:33N 52°29' E 003°54'7 7.1
2017-Feb-09 05:33N 52°22' E 003°52'1110.5
2017-Feb-09 04:33N 52°11' E 003°54'6 5.7
2017-Feb-09 03:33N 52°05' E 003°54'6 6.1
2017-Feb-09 02:33N 52°01' E 004°00'1010.1
2017-Feb-09 01:33N 51°55' E 004°14'8 7.7
2017-Feb-09 00:33N 51°54' E 004°26'1 0.7
2017-Feb-08 23:32N 51°53' E 004°27'0 0.0
2017-Feb-08 22:32N 51°53' E 004°27'0 0.0
2017-Feb-08 21:32N 51°53' E 004°27'0 0.0
2017-Feb-08 20:32N 51°53' E 004°27'0 0.0
2017-Feb-08 19:32N 51°53' E 004°27'0 0.0
2017-Feb-08 18:32N 51°53' E 004°27'0 0.0
2017-Feb-08 17:32N 51°53' E 004°27'0 0.0
2017-Feb-08 16:32N 51°53' E 004°27'0 0.0
2017-Feb-08 15:32N 51°53' E 004°27'0 0.0
2017-Feb-08 14:32N 51°53' E 004°27'0 0.0
2017-Feb-08 13:32N 51°53' E 004°27'0 0.0
2017-Feb-08 12:31N 51°53' E 004°27'0 0.0
2017-Feb-08 11:31N 51°53' E 004°27'0 0.0
2017-Feb-08 10:31N 51°53' E 004°27'0 0.0
2017-Feb-08 09:31N 51°53' E 004°27'0 0.0
2017-Feb-08 08:31N 51°53' E 004°27'0 0.0
2017-Feb-08 07:32N 51°53' E 004°27'0 0.0
2017-Feb-08 06:31N 51°53' E 004°27'0 0.0
2017-Feb-08 05:31N 51°53' E 004°27'0 0.0
2017-Feb-08 04:31N 51°53' E 004°27'0 0.0
2017-Feb-08 03:32N 51°53' E 004°27'0 0.0
2017-Feb-08 02:32N 51°53' E 004°27'0 0.0
2017-Feb-08 01:32N 51°53' E 004°27'0 0.0
2017-Feb-08 00:31N 51°53' E 004°27'0 0.0
2017-Feb-07 23:32N 51°53' E 004°27'0 0.0
2017-Feb-07 22:31N 51°53' E 004°27'0 0.0
2017-Feb-07 21:31N 51°53' E 004°27'0 0.0
2017-Feb-07 20:31N 51°53' E 004°27'0 0.0
2017-Feb-07 19:31N 51°53' E 004°27'0 0.0
2017-Feb-07 18:31N 51°53' E 004°27'0 0.0
2017-Feb-07 17:31N 51°53' E 004°27'0 0.0
2017-Feb-07 16:28N 51°53' E 004°27'0 0.0
2017-Feb-07 15:31N 51°53' E 004°27'0 0.0
2017-Feb-07 14:31N 51°53' E 004°27'0 0.0
2017-Feb-07 13:31N 51°53' E 004°27'  
Track history (hours):
 
Tides and Currents Weather Stations Pressure Air Temp Water Temp Dewpoint Dewpoint Depression Visibility Wind Speed Wind Dir Waves Ship Positions

Egmondgracht

Last reported at 2017-Feb-17 13:14 UTC. Time now 2017-Feb-23 00:20 UTC.
Position N 38°47' W 011°28'.

Length 136 m; beam 19 m; draft 9 m.

Type: Cargo ship. MMSI: 245716000.

Date/timePositionNaut miles runAvg speedWind from/ knotsBaromVisibWave heightAir tempDewpointWater temp
2017-Feb-17 13:14N 38°47' W 011°28'1014.7
2017-Feb-17 12:34N 38°55' W 011°20'1514.6
2017-Feb-17 11:34N 39°06' W 011°08'1514.8
2017-Feb-17 10:33N 39°17' W 010°55'6114.6
2017-Feb-17 06:21N 40°02' W 010°02'  
2017-Feb-12 14:23N 49°39' W 003°49'1316.1
2017-Feb-12 13:33N 49°46' W 003°31'1515.1
2017-Feb-12 12:33N 49°54' W 003°11'1615.5
2017-Feb-12 11:31N 50°00' W 002°48'4812.0
2017-Feb-12 07:33N 50°13' W 001°37'1212.5
2017-Feb-12 06:33N 50°16' W 001°18'1514.9
2017-Feb-12 05:33N 50°20' W 000°55'1816.5
2017-Feb-12 04:29N 50°25' W 000°29'1516.4
2017-Feb-12 03:33N 50°29' W 000°06'1616.2
2017-Feb-12 02:33N 50°33' E 000°19'1515.2
2017-Feb-12 01:33N 50°40' E 000°40'1414.2
2017-Feb-12 00:34N 50°49' E 000°58'1313.4
2017-Feb-11 23:33N 50°57' E 001°14'1414.0
2017-Feb-11 22:34N 51°06' E 001°32'1616.3
2017-Feb-11 21:34N 51°18' E 001°49'1716.9
2017-Feb-11 20:33N 51°32' E 002°05'21011.7
2017-Feb-11 02:33N 53°25' E 006°56'10 2.5
2017-Feb-10 22:26N 53°20' E 007°12'0 0.0
2017-Feb-10 21:11N 53°20' E 007°12'0 0.0
2017-Feb-10 20:23N 53°20' E 007°12'0 0.0
2017-Feb-10 19:11N 53°20' E 007°12'0 0.0
2017-Feb-10 17:23N 53°20' E 007°12'0 0.0
2017-Feb-10 16:29N 53°20' E 007°12'0 0.0
2017-Feb-10 15:29N 53°20' E 007°12'0 0.0
2017-Feb-10 14:23N 53°20' E 007°12'0 0.0
2017-Feb-10 13:29N 53°20' E 007°12'0 0.0
2017-Feb-10 12:23N 53°20' E 007°12'0 0.0
2017-Feb-10 11:17N 53°20' E 007°12'0 0.0
2017-Feb-10 10:11N 53°20' E 007°12'0 0.0
2017-Feb-10 07:29N 53°20' E 007°12'0 0.0
2017-Feb-10 06:29N 53°20' E 007°12'0 0.0
2017-Feb-10 05:05N 53°20' E 007°12'0 0.0
2017-Feb-10 04:33N 53°20' E 007°12'1 0.6
2017-Feb-10 03:29N 53°20' E 007°11'6 6.1
2017-Feb-10 02:33N 53°19' E 007°02'1110.8
2017-Feb-10 01:31N 53°28' E 006°50'1411.0
2017-Feb-10 00:17N 53°37' E 006°32'46 6.9
2017-Feb-09 17:33N 53°31' E 005°15'13 6.3
2017-Feb-09 15:29N 53°27' E 004°54'18 6.0
2017-Feb-09 12:30N 53°13' E 004°34'6 6.6
2017-Feb-09 11:33N 53°08' E 004°28'1110.6
2017-Feb-09 10:33N 52°59' E 004°20'1111.1
2017-Feb-09 09:33N 52°49' E 004°12'3 3.1
2017-Feb-09 08:33N 52°46' E 004°10'1111.2
2017-Feb-09 07:33N 52°36' E 003°60'9 8.5
2017-Feb-09 06:33N 52°29' E 003°54'7 7.1
2017-Feb-09 05:33N 52°22' E 003°52'1110.5
2017-Feb-09 04:33N 52°11' E 003°54'6 5.7
2017-Feb-09 03:33N 52°05' E 003°54'6 6.1
2017-Feb-09 02:33N 52°01' E 004°00'1010.1
2017-Feb-09 01:33N 51°55' E 004°14'8 7.7
2017-Feb-09 00:33N 51°54' E 004°26'1 0.7
2017-Feb-08 23:32N 51°53' E 004°27'0 0.0
2017-Feb-08 22:32N 51°53' E 004°27'0 0.0
2017-Feb-08 21:32N 51°53' E 004°27'0 0.0
2017-Feb-08 20:32N 51°53' E 004°27'0 0.0
2017-Feb-08 19:32N 51°53' E 004°27'0 0.0
2017-Feb-08 18:32N 51°53' E 004°27'0 0.0
2017-Feb-08 17:32N 51°53' E 004°27'0 0.0
2017-Feb-08 16:32N 51°53' E 004°27'0 0.0
2017-Feb-08 15:32N 51°53' E 004°27'0 0.0
2017-Feb-08 14:32N 51°53' E 004°27'0 0.0
2017-Feb-08 13:32N 51°53' E 004°27'0 0.0
2017-Feb-08 12:31N 51°53' E 004°27'0 0.0
2017-Feb-08 11:31N 51°53' E 004°27'0 0.0
2017-Feb-08 10:31N 51°53' E 004°27'0 0.0
2017-Feb-08 09:31N 51°53' E 004°27'0 0.0
2017-Feb-08 08:31N 51°53' E 004°27'0 0.0
2017-Feb-08 07:32N 51°53' E 004°27'0 0.0
2017-Feb-08 06:31N 51°53' E 004°27'0 0.0
2017-Feb-08 05:31N 51°53' E 004°27'0 0.0
2017-Feb-08 04:31N 51°53' E 004°27'0 0.0
2017-Feb-08 03:32N 51°53' E 004°27'0 0.0
2017-Feb-08 02:32N 51°53' E 004°27'0 0.0
2017-Feb-08 01:32N 51°53' E 004°27'0 0.0
2017-Feb-08 00:31N 51°53' E 004°27'0 0.0
2017-Feb-07 23:32N 51°53' E 004°27'0 0.0
2017-Feb-07 22:31N 51°53' E 004°27'0 0.0
2017-Feb-07 21:31N 51°53' E 004°27'0 0.0
2017-Feb-07 20:31N 51°53' E 004°27'0 0.0
2017-Feb-07 19:31N 51°53' E 004°27'0 0.0
2017-Feb-07 18:31N 51°53' E 004°27'0 0.0
2017-Feb-07 17:31N 51°53' E 004°27'0 0.0
2017-Feb-07 16:28N 51°53' E 004°27'0 0.0
2017-Feb-07 15:31N 51°53' E 004°27'0 0.0
2017-Feb-07 14:31N 51°53' E 004°27'0 0.0
2017-Feb-07 13:31N 51°53' E 004°27'  

Dump ship's entire track history